sensor_id;sensor_type;location;lat;lon;timestamp;P1;durP1;ratioP1;P2;durP2;ratioP2
52456;SDS011;38369;52.840;7.082;2024-03-07T00:01:53;40.60;;;23.88;;
52456;SDS011;38369;52.840;7.082;2024-03-07T00:04:20;37.30;;;24.67;;
52456;SDS011;38369;52.840;7.082;2024-03-07T00:06:46;34.50;;;24.42;;
52456;SDS011;38369;52.840;7.082;2024-03-07T00:09:13;36.05;;;23.95;;
52456;SDS011;38369;52.840;7.082;2024-03-07T00:11:40;36.47;;;23.08;;
52456;SDS011;38369;52.840;7.082;2024-03-07T00:14:06;33.58;;;22.40;;
52456;SDS011;38369;52.840;7.082;2024-03-07T00:16:33;39.60;;;24.17;;
52456;SDS011;38369;52.840;7.082;2024-03-07T00:18:59;33.50;;;23.05;;
52456;SDS011;38369;52.840;7.082;2024-03-07T00:21:25;32.58;;;23.60;;
52456;SDS011;38369;52.840;7.082;2024-03-07T00:23:51;36.35;;;23.63;;
52456;SDS011;38369;52.840;7.082;2024-03-07T00:26:19;32.08;;;22.50;;
52456;SDS011;38369;52.840;7.082;2024-03-07T00:28:45;36.25;;;24.33;;
52456;SDS011;38369;52.840;7.082;2024-03-07T00:31:11;34.15;;;23.27;;
52456;SDS011;38369;52.840;7.082;2024-03-07T00:33:37;37.55;;;23.25;;
52456;SDS011;38369;52.840;7.082;2024-03-07T00:36:03;30.58;;;21.60;;
52456;SDS011;38369;52.840;7.082;2024-03-07T00:38:29;36.45;;;22.35;;
52456;SDS011;38369;52.840;7.082;2024-03-07T00:40:55;32.55;;;21.33;;
52456;SDS011;38369;52.840;7.082;2024-03-07T00:43:21;32.83;;;22.27;;
52456;SDS011;38369;52.840;7.082;2024-03-07T00:45:47;36.50;;;22.08;;
52456;SDS011;38369;52.840;7.082;2024-03-07T00:48:16;36.22;;;23.02;;
52456;SDS011;38369;52.840;7.082;2024-03-07T00:50:43;34.30;;;23.05;;
52456;SDS011;38369;52.840;7.082;2024-03-07T00:53:09;38.35;;;22.70;;
52456;SDS011;38369;52.840;7.082;2024-03-07T00:55:35;34.30;;;22.80;;
52456;SDS011;38369;52.840;7.082;2024-03-07T00:58:01;36.03;;;22.40;;
52456;SDS011;38369;52.840;7.082;2024-03-07T01:00:28;34.45;;;23.40;;
52456;SDS011;38369;52.840;7.082;2024-03-07T01:02:54;33.70;;;22.30;;
52456;SDS011;38369;52.840;7.082;2024-03-07T01:05:21;33.15;;;21.73;;
52456;SDS011;38369;52.840;7.082;2024-03-07T01:07:48;32.88;;;21.70;;
52456;SDS011;38369;52.840;7.082;2024-03-07T01:10:14;35.35;;;21.95;;
52456;SDS011;38369;52.840;7.082;2024-03-07T01:12:40;38.28;;;22.83;;
52456;SDS011;38369;52.840;7.082;2024-03-07T01:15:08;33.67;;;21.70;;
52456;SDS011;38369;52.840;7.082;2024-03-07T01:17:36;30.15;;;20.48;;
52456;SDS011;38369;52.840;7.082;2024-03-07T01:20:02;33.47;;;21.77;;
52456;SDS011;38369;52.840;7.082;2024-03-07T01:22:29;34.78;;;22.38;;
52456;SDS011;38369;52.840;7.082;2024-03-07T01:24:55;30.90;;;22.38;;
52456;SDS011;38369;52.840;7.082;2024-03-07T01:27:21;38.58;;;23.92;;
52456;SDS011;38369;52.840;7.082;2024-03-07T01:29:49;33.03;;;22.02;;
52456;SDS011;38369;52.840;7.082;2024-03-07T01:32:15;35.20;;;23.00;;
52456;SDS011;38369;52.840;7.082;2024-03-07T01:34:41;41.10;;;24.23;;
52456;SDS011;38369;52.840;7.082;2024-03-07T01:37:07;34.45;;;21.45;;
52456;SDS011;38369;52.840;7.082;2024-03-07T01:39:33;33.50;;;21.38;;
52456;SDS011;38369;52.840;7.082;2024-03-07T01:41:59;34.95;;;21.70;;
52456;SDS011;38369;52.840;7.082;2024-03-07T01:44:25;32.13;;;21.40;;
52456;SDS011;38369;52.840;7.082;2024-03-07T01:46:51;31.92;;;21.67;;
52456;SDS011;38369;52.840;7.082;2024-03-07T01:49:17;31.85;;;20.40;;
52456;SDS011;38369;52.840;7.082;2024-03-07T01:51:43;34.90;;;22.13;;
52456;SDS011;38369;52.840;7.082;2024-03-07T01:54:10;36.50;;;21.80;;
52456;SDS011;38369;52.840;7.082;2024-03-07T01:56:36;38.03;;;22.67;;
52456;SDS011;38369;52.840;7.082;2024-03-07T01:59:03;31.48;;;21.42;;
52456;SDS011;38369;52.840;7.082;2024-03-07T02:01:30;36.10;;;23.60;;
52456;SDS011;38369;52.840;7.082;2024-03-07T02:03:56;35.42;;;22.83;;
52456;SDS011;38369;52.840;7.082;2024-03-07T02:06:23;36.72;;;21.40;;
52456;SDS011;38369;52.840;7.082;2024-03-07T02:08:49;36.92;;;24.05;;
52456;SDS011;38369;52.840;7.082;2024-03-07T02:11:15;41.60;;;21.85;;
52456;SDS011;38369;52.840;7.082;2024-03-07T02:13:41;32.53;;;22.23;;
52456;SDS011;38369;52.840;7.082;2024-03-07T02:16:07;40.28;;;22.98;;
52456;SDS011;38369;52.840;7.082;2024-03-07T02:18:33;35.22;;;22.52;;
52456;SDS011;38369;52.840;7.082;2024-03-07T02:20:59;35.50;;;22.50;;
52456;SDS011;38369;52.840;7.082;2024-03-07T02:23:25;37.55;;;24.75;;
52456;SDS011;38369;52.840;7.082;2024-03-07T02:25:52;38.40;;;23.33;;
52456;SDS011;38369;52.840;7.082;2024-03-07T02:28:18;34.28;;;22.38;;
52456;SDS011;38369;52.840;7.082;2024-03-07T02:30:44;35.40;;;22.05;;
52456;SDS011;38369;52.840;7.082;2024-03-07T02:33:11;39.25;;;23.20;;
52456;SDS011;38369;52.840;7.082;2024-03-07T02:35:37;42.38;;;23.92;;
52456;SDS011;38369;52.840;7.082;2024-03-07T02:38:03;37.55;;;24.20;;
52456;SDS011;38369;52.840;7.082;2024-03-07T02:40:30;34.03;;;21.40;;
52456;SDS011;38369;52.840;7.082;2024-03-07T02:42:56;36.53;;;23.80;;
52456;SDS011;38369;52.840;7.082;2024-03-07T02:45:23;35.88;;;23.85;;
52456;SDS011;38369;52.840;7.082;2024-03-07T02:47:49;33.05;;;23.02;;
52456;SDS011;38369;52.840;7.082;2024-03-07T02:50:15;35.67;;;23.45;;
52456;SDS011;38369;52.840;7.082;2024-03-07T02:52:41;36.33;;;22.42;;
52456;SDS011;38369;52.840;7.082;2024-03-07T02:55:07;35.05;;;22.92;;
52456;SDS011;38369;52.840;7.082;2024-03-07T02:57:35;31.27;;;21.42;;
52456;SDS011;38369;52.840;7.082;2024-03-07T03:00:02;34.95;;;22.92;;
52456;SDS011;38369;52.840;7.082;2024-03-07T03:02:38;33.78;;;22.40;;
52456;SDS011;38369;52.840;7.082;2024-03-07T03:05:04;38.08;;;22.65;;
52456;SDS011;38369;52.840;7.082;2024-03-07T03:07:34;30.02;;;21.77;;
52456;SDS011;38369;52.840;7.082;2024-03-07T03:10:01;35.58;;;23.58;;
52456;SDS011;38369;52.840;7.082;2024-03-07T03:12:30;38.30;;;22.43;;
52456;SDS011;38369;52.840;7.082;2024-03-07T03:14:56;30.02;;;19.90;;
52456;SDS011;38369;52.840;7.082;2024-03-07T03:17:22;33.03;;;20.70;;
52456;SDS011;38369;52.840;7.082;2024-03-07T03:19:48;35.40;;;22.08;;
52456;SDS011;38369;52.840;7.082;2024-03-07T03:22:16;34.28;;;22.55;;
52456;SDS011;38369;52.840;7.082;2024-03-07T03:24:43;30.23;;;20.50;;
52456;SDS011;38369;52.840;7.082;2024-03-07T03:27:09;34.42;;;22.95;;
52456;SDS011;38369;52.840;7.082;2024-03-07T03:29:36;36.05;;;23.10;;
52456;SDS011;38369;52.840;7.082;2024-03-07T03:32:02;32.33;;;22.13;;
52456;SDS011;38369;52.840;7.082;2024-03-07T03:34:28;31.48;;;21.52;;
52456;SDS011;38369;52.840;7.082;2024-03-07T03:36:54;33.90;;;21.85;;
52456;SDS011;38369;52.840;7.082;2024-03-07T03:39:20;28.25;;;19.05;;
52456;SDS011;38369;52.840;7.082;2024-03-07T03:41:46;31.45;;;20.77;;
52456;SDS011;38369;52.840;7.082;2024-03-07T03:44:12;31.55;;;22.23;;
52456;SDS011;38369;52.840;7.082;2024-03-07T03:46:39;28.77;;;19.65;;
52456;SDS011;38369;52.840;7.082;2024-03-07T03:49:05;35.72;;;21.35;;
52456;SDS011;38369;52.840;7.082;2024-03-07T03:51:31;31.60;;;22.02;;
52456;SDS011;38369;52.840;7.082;2024-03-07T03:53:57;31.83;;;20.83;;
52456;SDS011;38369;52.840;7.082;2024-03-07T03:56:23;29.92;;;20.42;;
52456;SDS011;38369;52.840;7.082;2024-03-07T03:58:50;29.52;;;20.25;;
52456;SDS011;38369;52.840;7.082;2024-03-07T04:01:15;33.08;;;22.10;;
52456;SDS011;38369;52.840;7.082;2024-03-07T04:03:41;35.00;;;21.80;;
52456;SDS011;38369;52.840;7.082;2024-03-07T04:06:07;32.13;;;21.15;;
52456;SDS011;38369;52.840;7.082;2024-03-07T04:08:34;32.55;;;20.20;;
52456;SDS011;38369;52.840;7.082;2024-03-07T04:11:01;32.00;;;20.98;;
52456;SDS011;38369;52.840;7.082;2024-03-07T04:13:28;29.40;;;19.92;;
52456;SDS011;38369;52.840;7.082;2024-03-07T04:15:55;29.13;;;19.60;;
52456;SDS011;38369;52.840;7.082;2024-03-07T04:18:21;33.53;;;22.05;;
52456;SDS011;38369;52.840;7.082;2024-03-07T04:20:47;29.48;;;19.13;;
52456;SDS011;38369;52.840;7.082;2024-03-07T04:23:13;31.95;;;19.75;;
52456;SDS011;38369;52.840;7.082;2024-03-07T04:25:40;28.38;;;19.55;;
52456;SDS011;38369;52.840;7.082;2024-03-07T04:28:06;27.08;;;18.27;;
52456;SDS011;38369;52.840;7.082;2024-03-07T04:30:33;29.90;;;20.15;;
52456;SDS011;38369;52.840;7.082;2024-03-07T04:32:59;30.95;;;20.23;;
52456;SDS011;38369;52.840;7.082;2024-03-07T04:35:25;32.65;;;20.38;;
52456;SDS011;38369;52.840;7.082;2024-03-07T04:37:51;27.17;;;20.25;;
52456;SDS011;38369;52.840;7.082;2024-03-07T04:40:18;27.92;;;19.17;;
52456;SDS011;38369;52.840;7.082;2024-03-07T04:42:47;31.38;;;20.92;;
52456;SDS011;38369;52.840;7.082;2024-03-07T04:45:14;30.23;;;20.23;;
52456;SDS011;38369;52.840;7.082;2024-03-07T04:47:41;31.95;;;21.25;;
52456;SDS011;38369;52.840;7.082;2024-03-07T04:50:08;30.55;;;19.63;;
52456;SDS011;38369;52.840;7.082;2024-03-07T04:52:36;28.70;;;20.33;;
52456;SDS011;38369;52.840;7.082;2024-03-07T04:55:02;30.90;;;19.90;;
52456;SDS011;38369;52.840;7.082;2024-03-07T04:57:28;25.60;;;18.92;;
52456;SDS011;38369;52.840;7.082;2024-03-07T04:59:54;31.48;;;21.55;;
52456;SDS011;38369;52.840;7.082;2024-03-07T05:02:21;29.50;;;20.50;;
52456;SDS011;38369;52.840;7.082;2024-03-07T05:04:48;31.15;;;21.77;;
52456;SDS011;38369;52.840;7.082;2024-03-07T05:07:15;32.85;;;20.75;;
52456;SDS011;38369;52.840;7.082;2024-03-07T05:09:41;35.10;;;22.40;;
52456;SDS011;38369;52.840;7.082;2024-03-07T05:12:07;32.03;;;20.25;;
52456;SDS011;38369;52.840;7.082;2024-03-07T05:14:34;29.45;;;21.20;;
52456;SDS011;38369;52.840;7.082;2024-03-07T05:17:00;30.63;;;21.75;;
52456;SDS011;38369;52.840;7.082;2024-03-07T05:19:33;30.08;;;20.25;;
52456;SDS011;38369;52.840;7.082;2024-03-07T05:21:59;30.48;;;20.63;;
52456;SDS011;38369;52.840;7.082;2024-03-07T05:24:26;30.27;;;20.50;;
52456;SDS011;38369;52.840;7.082;2024-03-07T05:26:52;29.50;;;20.98;;
52456;SDS011;38369;52.840;7.082;2024-03-07T05:29:19;32.95;;;22.58;;
52456;SDS011;38369;52.840;7.082;2024-03-07T05:31:45;30.15;;;20.60;;
52456;SDS011;38369;52.840;7.082;2024-03-07T05:34:14;30.27;;;21.45;;
52456;SDS011;38369;52.840;7.082;2024-03-07T05:36:40;29.20;;;20.30;;
52456;SDS011;38369;52.840;7.082;2024-03-07T05:41:40;33.53;;;21.50;;
52456;SDS011;38369;52.840;7.082;2024-03-07T05:44:07;31.40;;;20.05;;
52456;SDS011;38369;52.840;7.082;2024-03-07T05:46:36;30.75;;;20.63;;
52456;SDS011;38369;52.840;7.082;2024-03-07T05:49:06;35.58;;;23.70;;
52456;SDS011;38369;52.840;7.082;2024-03-07T05:51:32;36.35;;;23.90;;
52456;SDS011;38369;52.840;7.082;2024-03-07T05:53:58;36.53;;;24.77;;
52456;SDS011;38369;52.840;7.082;2024-03-07T05:56:24;33.85;;;23.40;;
52456;SDS011;38369;52.840;7.082;2024-03-07T05:58:50;40.20;;;23.05;;
52456;SDS011;38369;52.840;7.082;2024-03-07T06:01:16;39.63;;;24.38;;
52456;SDS011;38369;52.840;7.082;2024-03-07T06:03:43;35.53;;;24.77;;
52456;SDS011;38369;52.840;7.082;2024-03-07T06:06:10;34.58;;;22.58;;
52456;SDS011;38369;52.840;7.082;2024-03-07T06:08:37;34.88;;;23.52;;
52456;SDS011;38369;52.840;7.082;2024-03-07T06:11:08;38.97;;;26.42;;
52456;SDS011;38369;52.840;7.082;2024-03-07T06:13:34;40.25;;;26.42;;
52456;SDS011;38369;52.840;7.082;2024-03-07T06:16:00;38.55;;;25.30;;
52456;SDS011;38369;52.840;7.082;2024-03-07T06:18:30;39.00;;;24.63;;
52456;SDS011;38369;52.840;7.082;2024-03-07T06:20:56;41.28;;;26.77;;
52456;SDS011;38369;52.840;7.082;2024-03-07T06:23:22;41.88;;;26.10;;
52456;SDS011;38369;52.840;7.082;2024-03-07T06:25:49;38.25;;;25.70;;
52456;SDS011;38369;52.840;7.082;2024-03-07T06:28:19;43.72;;;27.52;;
52456;SDS011;38369;52.840;7.082;2024-03-07T06:30:46;44.90;;;29.27;;
52456;SDS011;38369;52.840;7.082;2024-03-07T06:33:12;39.75;;;28.10;;
52456;SDS011;38369;52.840;7.082;2024-03-07T06:35:39;44.67;;;28.05;;
52456;SDS011;38369;52.840;7.082;2024-03-07T06:38:06;40.47;;;29.05;;
52456;SDS011;38369;52.840;7.082;2024-03-07T06:40:33;45.03;;;28.27;;
52456;SDS011;38369;52.840;7.082;2024-03-07T06:42:59;43.83;;;29.05;;
52456;SDS011;38369;52.840;7.082;2024-03-07T06:45:25;47.97;;;31.05;;
52456;SDS011;38369;52.840;7.082;2024-03-07T06:47:51;46.45;;;31.60;;
52456;SDS011;38369;52.840;7.082;2024-03-07T06:50:20;43.63;;;28.75;;
52456;SDS011;38369;52.840;7.082;2024-03-07T06:52:46;46.10;;;30.75;;
52456;SDS011;38369;52.840;7.082;2024-03-07T06:55:16;47.70;;;30.90;;
52456;SDS011;38369;52.840;7.082;2024-03-07T06:57:45;50.42;;;32.55;;
52456;SDS011;38369;52.840;7.082;2024-03-07T07:00:11;53.22;;;33.92;;
52456;SDS011;38369;52.840;7.082;2024-03-07T07:02:39;50.28;;;32.55;;
52456;SDS011;38369;52.840;7.082;2024-03-07T07:05:08;53.88;;;33.42;;
52456;SDS011;38369;52.840;7.082;2024-03-07T07:07:37;51.20;;;33.58;;
52456;SDS011;38369;52.840;7.082;2024-03-07T07:10:04;56.60;;;35.17;;
52456;SDS011;38369;52.840;7.082;2024-03-07T07:12:34;54.60;;;32.13;;
52456;SDS011;38369;52.840;7.082;2024-03-07T07:15:00;65.10;;;36.97;;
52456;SDS011;38369;52.840;7.082;2024-03-07T07:17:26;65.90;;;38.70;;
52456;SDS011;38369;52.840;7.082;2024-03-07T07:19:54;68.60;;;40.45;;
52456;SDS011;38369;52.840;7.082;2024-03-07T07:22:21;75.05;;;39.28;;
52456;SDS011;38369;52.840;7.082;2024-03-07T07:24:47;74.60;;;41.00;;
52456;SDS011;38369;52.840;7.082;2024-03-07T07:27:13;81.15;;;42.65;;
52456;SDS011;38369;52.840;7.082;2024-03-07T07:29:39;75.18;;;41.25;;
52456;SDS011;38369;52.840;7.082;2024-03-07T07:32:06;79.45;;;42.33;;
52456;SDS011;38369;52.840;7.082;2024-03-07T07:34:32;78.70;;;42.97;;
52456;SDS011;38369;52.840;7.082;2024-03-07T07:36:59;75.95;;;40.72;;
52456;SDS011;38369;52.840;7.082;2024-03-07T07:39:25;77.15;;;40.63;;
52456;SDS011;38369;52.840;7.082;2024-03-07T07:41:51;70.55;;;39.10;;
52456;SDS011;38369;52.840;7.082;2024-03-07T07:44:17;80.55;;;42.42;;
52456;SDS011;38369;52.840;7.082;2024-03-07T07:46:43;82.40;;;40.13;;
52456;SDS011;38369;52.840;7.082;2024-03-07T07:49:09;81.47;;;43.30;;
52456;SDS011;38369;52.840;7.082;2024-03-07T07:51:35;82.93;;;44.08;;
52456;SDS011;38369;52.840;7.082;2024-03-07T07:54:01;73.78;;;39.55;;
52456;SDS011;38369;52.840;7.082;2024-03-07T07:56:27;84.50;;;41.78;;
52456;SDS011;38369;52.840;7.082;2024-03-07T07:58:56;80.88;;;40.80;;
52456;SDS011;38369;52.840;7.082;2024-03-07T08:01:22;77.43;;;39.83;;
52456;SDS011;38369;52.840;7.082;2024-03-07T08:03:48;76.35;;;37.95;;
52456;SDS011;38369;52.840;7.082;2024-03-07T08:06:14;71.07;;;38.58;;
52456;SDS011;38369;52.840;7.082;2024-03-07T08:08:40;73.80;;;39.30;;
52456;SDS011;38369;52.840;7.082;2024-03-07T08:11:07;71.57;;;39.47;;
52456;SDS011;38369;52.840;7.082;2024-03-07T08:13:34;72.50;;;39.17;;
52456;SDS011;38369;52.840;7.082;2024-03-07T08:16:00;77.80;;;38.65;;
52456;SDS011;38369;52.840;7.082;2024-03-07T08:18:26;75.68;;;41.00;;
52456;SDS011;38369;52.840;7.082;2024-03-07T08:20:52;78.10;;;40.47;;
52456;SDS011;38369;52.840;7.082;2024-03-07T08:23:18;77.80;;;39.25;;
52456;SDS011;38369;52.840;7.082;2024-03-07T08:25:44;81.22;;;40.50;;
52456;SDS011;38369;52.840;7.082;2024-03-07T08:28:10;78.97;;;40.00;;
52456;SDS011;38369;52.840;7.082;2024-03-07T08:30:36;79.88;;;39.83;;
52456;SDS011;38369;52.840;7.082;2024-03-07T08:33:02;73.57;;;37.00;;
52456;SDS011;38369;52.840;7.082;2024-03-07T08:35:30;78.07;;;41.97;;
52456;SDS011;38369;52.840;7.082;2024-03-07T08:37:56;74.95;;;40.65;;
52456;SDS011;38369;52.840;7.082;2024-03-07T08:40:23;80.38;;;41.33;;
52456;SDS011;38369;52.840;7.082;2024-03-07T08:42:52;80.45;;;39.53;;
52456;SDS011;38369;52.840;7.082;2024-03-07T08:45:19;67.20;;;31.70;;
52456;SDS011;38369;52.840;7.082;2024-03-07T08:47:49;83.90;;;39.72;;
52456;SDS011;38369;52.840;7.082;2024-03-07T08:50:15;84.22;;;41.38;;
52456;SDS011;38369;52.840;7.082;2024-03-07T08:52:43;85.22;;;43.05;;
52456;SDS011;38369;52.840;7.082;2024-03-07T08:55:11;86.90;;;41.78;;
52456;SDS011;38369;52.840;7.082;2024-03-07T08:57:39;95.20;;;43.03;;
52456;SDS011;38369;52.840;7.082;2024-03-07T09:00:06;82.22;;;41.38;;
52456;SDS011;38369;52.840;7.082;2024-03-07T09:02:39;82.40;;;40.17;;
52456;SDS011;38369;52.840;7.082;2024-03-07T09:05:05;80.10;;;39.30;;
52456;SDS011;38369;52.840;7.082;2024-03-07T09:07:32;88.88;;;39.20;;
52456;SDS011;38369;52.840;7.082;2024-03-07T09:09:58;84.70;;;40.42;;
52456;SDS011;38369;52.840;7.082;2024-03-07T09:12:24;75.50;;;37.00;;
52456;SDS011;38369;52.840;7.082;2024-03-07T09:14:53;72.88;;;36.38;;
52456;SDS011;38369;52.840;7.082;2024-03-07T09:17:23;77.47;;;37.80;;
52456;SDS011;38369;52.840;7.082;2024-03-07T09:19:49;82.00;;;40.15;;
52456;SDS011;38369;52.840;7.082;2024-03-07T09:22:15;77.15;;;38.25;;
52456;SDS011;38369;52.840;7.082;2024-03-07T09:24:41;66.00;;;33.72;;
52456;SDS011;38369;52.840;7.082;2024-03-07T09:27:07;69.53;;;35.92;;
52456;SDS011;38369;52.840;7.082;2024-03-07T09:29:33;62.17;;;32.58;;
52456;SDS011;38369;52.840;7.082;2024-03-07T09:31:59;73.40;;;36.38;;
52456;SDS011;38369;52.840;7.082;2024-03-07T09:34:25;58.17;;;31.35;;
52456;SDS011;38369;52.840;7.082;2024-03-07T09:36:51;60.97;;;32.42;;
52456;SDS011;38369;52.840;7.082;2024-03-07T09:39:18;59.08;;;31.80;;
52456;SDS011;38369;52.840;7.082;2024-03-07T09:41:44;58.95;;;30.80;;
52456;SDS011;38369;52.840;7.082;2024-03-07T09:44:17;59.10;;;31.55;;
52456;SDS011;38369;52.840;7.082;2024-03-07T09:46:48;55.92;;;28.50;;
52456;SDS011;38369;52.840;7.082;2024-03-07T09:49:15;53.15;;;30.35;;
52456;SDS011;38369;52.840;7.082;2024-03-07T09:51:42;47.97;;;28.92;;
52456;SDS011;38369;52.840;7.082;2024-03-07T09:54:09;52.38;;;28.58;;
52456;SDS011;38369;52.840;7.082;2024-03-07T09:56:35;52.58;;;29.73;;
52456;SDS011;38369;52.840;7.082;2024-03-07T09:59:03;55.10;;;30.33;;
52456;SDS011;38369;52.840;7.082;2024-03-07T10:01:30;49.80;;;29.73;;
52456;SDS011;38369;52.840;7.082;2024-03-07T10:03:59;56.72;;;30.77;;
52456;SDS011;38369;52.840;7.082;2024-03-07T10:06:36;55.20;;;29.65;;
52456;SDS011;38369;52.840;7.082;2024-03-07T10:09:03;50.75;;;28.08;;
52456;SDS011;38369;52.840;7.082;2024-03-07T10:11:30;48.67;;;28.55;;
52456;SDS011;38369;52.840;7.082;2024-03-07T10:13:56;50.08;;;28.58;;
52456;SDS011;38369;52.840;7.082;2024-03-07T10:16:22;53.05;;;29.27;;
52456;SDS011;38369;52.840;7.082;2024-03-07T10:18:48;53.22;;;28.50;;
52456;SDS011;38369;52.840;7.082;2024-03-07T10:21:18;51.35;;;28.80;;
52456;SDS011;38369;52.840;7.082;2024-03-07T10:23:44;56.03;;;30.02;;
52456;SDS011;38369;52.840;7.082;2024-03-07T10:26:10;47.15;;;27.65;;
52456;SDS011;38369;52.840;7.082;2024-03-07T10:28:37;45.65;;;26.50;;
52456;SDS011;38369;52.840;7.082;2024-03-07T10:31:03;45.30;;;26.98;;
52456;SDS011;38369;52.840;7.082;2024-03-07T10:33:35;44.35;;;26.02;;
52456;SDS011;38369;52.840;7.082;2024-03-07T10:36:01;51.30;;;26.00;;
52456;SDS011;38369;52.840;7.082;2024-03-07T10:38:27;47.85;;;28.52;;
52456;SDS011;38369;52.840;7.082;2024-03-07T10:40:54;44.70;;;25.15;;
52456;SDS011;38369;52.840;7.082;2024-03-07T10:43:20;39.65;;;24.88;;
52456;SDS011;38369;52.840;7.082;2024-03-07T10:45:47;46.75;;;25.02;;
52456;SDS011;38369;52.840;7.082;2024-03-07T10:48:16;40.50;;;25.23;;
52456;SDS011;38369;52.840;7.082;2024-03-07T10:53:31;41.72;;;24.58;;
52456;SDS011;38369;52.840;7.082;2024-03-07T10:58:37;42.97;;;24.80;;
52456;SDS011;38369;52.840;7.082;2024-03-07T11:01:04;43.20;;;24.88;;
52456;SDS011;38369;52.840;7.082;2024-03-07T11:03:36;45.50;;;24.52;;
52456;SDS011;38369;52.840;7.082;2024-03-07T11:06:03;45.05;;;26.17;;
52456;SDS011;38369;52.840;7.082;2024-03-07T11:08:36;47.58;;;25.60;;
52456;SDS011;38369;52.840;7.082;2024-03-07T11:11:02;43.20;;;25.20;;
52456;SDS011;38369;52.840;7.082;2024-03-07T11:13:29;42.10;;;23.63;;
52456;SDS011;38369;52.840;7.082;2024-03-07T11:15:55;45.50;;;25.05;;
52456;SDS011;38369;52.840;7.082;2024-03-07T11:18:24;48.30;;;27.85;;
52456;SDS011;38369;52.840;7.082;2024-03-07T11:20:50;43.90;;;26.52;;
52456;SDS011;38369;52.840;7.082;2024-03-07T11:23:29;44.30;;;26.80;;
52456;SDS011;38369;52.840;7.082;2024-03-07T11:28:33;48.03;;;27.95;;
52456;SDS011;38369;52.840;7.082;2024-03-07T11:33:34;51.92;;;27.90;;
52456;SDS011;38369;52.840;7.082;2024-03-07T11:36:05;50.35;;;28.90;;
52456;SDS011;38369;52.840;7.082;2024-03-07T11:38:31;51.63;;;28.83;;
52456;SDS011;38369;52.840;7.082;2024-03-07T11:40:59;54.85;;;30.52;;
52456;SDS011;38369;52.840;7.082;2024-03-07T11:43:30;57.72;;;30.17;;
52456;SDS011;38369;52.840;7.082;2024-03-07T11:45:56;61.95;;;30.45;;
52456;SDS011;38369;52.840;7.082;2024-03-07T11:48:22;57.13;;;29.77;;
52456;SDS011;38369;52.840;7.082;2024-03-07T11:50:49;57.08;;;30.48;;
52456;SDS011;38369;52.840;7.082;2024-03-07T11:53:15;57.47;;;29.33;;
52456;SDS011;38369;52.840;7.082;2024-03-07T11:55:42;56.22;;;30.05;;
52456;SDS011;38369;52.840;7.082;2024-03-07T11:58:19;50.90;;;28.45;;
52456;SDS011;38369;52.840;7.082;2024-03-07T12:00:49;61.75;;;32.25;;
52456;SDS011;38369;52.840;7.082;2024-03-07T12:03:16;51.47;;;27.58;;
52456;SDS011;38369;52.840;7.082;2024-03-07T12:05:44;57.67;;;28.65;;
52456;SDS011;38369;52.840;7.082;2024-03-07T12:08:10;51.78;;;27.88;;
52456;SDS011;38369;52.840;7.082;2024-03-07T12:10:37;55.13;;;31.52;;
52456;SDS011;38369;52.840;7.082;2024-03-07T12:13:09;51.03;;;28.42;;
52456;SDS011;38369;52.840;7.082;2024-03-07T12:15:36;55.40;;;28.38;;
52456;SDS011;38369;52.840;7.082;2024-03-07T12:18:04;52.83;;;29.30;;
52456;SDS011;38369;52.840;7.082;2024-03-07T12:20:39;46.75;;;27.35;;
52456;SDS011;38369;52.840;7.082;2024-03-07T12:23:07;52.65;;;28.63;;
52456;SDS011;38369;52.840;7.082;2024-03-07T12:25:34;55.53;;;28.33;;
52456;SDS011;38369;52.840;7.082;2024-03-07T12:28:07;45.47;;;26.92;;
52456;SDS011;38369;52.840;7.082;2024-03-07T12:33:12;46.22;;;26.80;;
52456;SDS011;38369;52.840;7.082;2024-03-07T12:35:48;49.90;;;29.23;;
52456;SDS011;38369;52.840;7.082;2024-03-07T12:38:15;55.13;;;30.13;;
52456;SDS011;38369;52.840;7.082;2024-03-07T12:40:42;55.92;;;29.25;;
52456;SDS011;38369;52.840;7.082;2024-03-07T12:43:21;49.80;;;27.63;;
52456;SDS011;38369;52.840;7.082;2024-03-07T12:45:50;56.10;;;29.40;;
52456;SDS011;38369;52.840;7.082;2024-03-07T12:48:17;52.30;;;28.67;;
52456;SDS011;38369;52.840;7.082;2024-03-07T12:50:52;46.60;;;28.75;;
52456;SDS011;38369;52.840;7.082;2024-03-07T12:53:19;47.80;;;26.50;;
52456;SDS011;38369;52.840;7.082;2024-03-07T12:55:46;54.67;;;27.70;;
52456;SDS011;38369;52.840;7.082;2024-03-07T12:58:12;55.08;;;28.05;;
52456;SDS011;38369;52.840;7.082;2024-03-07T13:00:39;46.00;;;25.98;;
52456;SDS011;38369;52.840;7.082;2024-03-07T13:03:08;46.42;;;25.45;;
52456;SDS011;38369;52.840;7.082;2024-03-07T13:05:35;48.50;;;26.05;;
52456;SDS011;38369;52.840;7.082;2024-03-07T13:08:05;56.75;;;26.98;;
52456;SDS011;38369;52.840;7.082;2024-03-07T13:10:31;50.80;;;27.80;;
52456;SDS011;38369;52.840;7.082;2024-03-07T13:12:57;49.53;;;26.98;;
52456;SDS011;38369;52.840;7.082;2024-03-07T13:15:23;38.63;;;23.30;;
52456;SDS011;38369;52.840;7.082;2024-03-07T13:17:50;43.92;;;25.20;;
52456;SDS011;38369;52.840;7.082;2024-03-07T13:20:18;48.05;;;26.02;;
52456;SDS011;38369;52.840;7.082;2024-03-07T13:22:47;44.45;;;25.65;;
52456;SDS011;38369;52.840;7.082;2024-03-07T13:25:14;53.90;;;28.58;;
52456;SDS011;38369;52.840;7.082;2024-03-07T13:30:24;49.97;;;27.35;;
52456;SDS011;38369;52.840;7.082;2024-03-07T13:32:53;44.83;;;25.42;;
52456;SDS011;38369;52.840;7.082;2024-03-07T13:35:20;45.45;;;26.10;;
52456;SDS011;38369;52.840;7.082;2024-03-07T13:37:49;47.15;;;28.50;;
52456;SDS011;38369;52.840;7.082;2024-03-07T13:40:16;50.13;;;27.35;;
52456;SDS011;38369;52.840;7.082;2024-03-07T13:45:18;51.47;;;29.45;;
52456;SDS011;38369;52.840;7.082;2024-03-07T13:47:46;49.25;;;28.70;;
52456;SDS011;38369;52.840;7.082;2024-03-07T13:50:13;48.55;;;26.70;;
52456;SDS011;38369;52.840;7.082;2024-03-07T13:52:39;44.45;;;24.98;;
52456;SDS011;38369;52.840;7.082;2024-03-07T13:55:09;46.05;;;27.65;;
52456;SDS011;38369;52.840;7.082;2024-03-07T13:57:41;51.20;;;28.05;;
52456;SDS011;38369;52.840;7.082;2024-03-07T14:22:33;42.42;;;25.27;;
52456;SDS011;38369;52.840;7.082;2024-03-07T14:28:12;41.65;;;25.95;;
52456;SDS011;38369;52.840;7.082;2024-03-07T14:30:41;41.60;;;23.95;;
52456;SDS011;38369;52.840;7.082;2024-03-07T14:33:08;38.30;;;24.90;;
52456;SDS011;38369;52.840;7.082;2024-03-07T14:38:28;34.97;;;22.83;;
52456;SDS011;38369;52.840;7.082;2024-03-07T14:40:55;33.00;;;22.67;;
52456;SDS011;38369;52.840;7.082;2024-03-07T14:43:22;36.00;;;23.02;;
52456;SDS011;38369;52.840;7.082;2024-03-07T14:45:49;39.00;;;23.27;;
52456;SDS011;38369;52.840;7.082;2024-03-07T14:48:16;37.20;;;23.58;;
52456;SDS011;38369;52.840;7.082;2024-03-07T14:50:43;37.17;;;23.05;;
52456;SDS011;38369;52.840;7.082;2024-03-07T14:53:11;36.55;;;22.42;;
52456;SDS011;38369;52.840;7.082;2024-03-07T14:55:38;33.58;;;21.48;;
52456;SDS011;38369;52.840;7.082;2024-03-07T14:58:05;35.50;;;23.92;;
52456;SDS011;38369;52.840;7.082;2024-03-07T15:00:34;37.07;;;22.03;;
52456;SDS011;38369;52.840;7.082;2024-03-07T15:03:04;40.03;;;21.83;;
52456;SDS011;38369;52.840;7.082;2024-03-07T15:05:31;35.17;;;22.10;;
52456;SDS011;38369;52.840;7.082;2024-03-07T15:07:57;35.55;;;22.02;;
52456;SDS011;38369;52.840;7.082;2024-03-07T15:10:27;33.85;;;22.17;;